sensor_id;sensor_type;location;lat;lon;timestamp;temperature;humidity
71754;DHT22;59593;51.716;7.016;2022-11-20T00:01:09;-2.00;99.90
71754;DHT22;59593;51.716;7.016;2022-11-20T00:03:35;-2.00;99.90
71754;DHT22;59593;51.716;7.016;2022-11-20T00:06:04;-2.10;99.90
71754;DHT22;59593;51.716;7.016;2022-11-20T00:08:30;-2.10;99.90
71754;DHT22;59593;51.716;7.016;2022-11-20T00:10:56;-2.00;99.90
71754;DHT22;59593;51.716;7.016;2022-11-20T00:13:22;-2.00;99.90
71754;DHT22;59593;51.716;7.016;2022-11-20T00:15:47;-2.00;99.90
71754;DHT22;59593;51.716;7.016;2022-11-20T00:18:13;-2.20;99.90
71754;DHT22;59593;51.716;7.016;2022-11-20T00:20:39;-2.30;99.90
71754;DHT22;59593;51.716;7.016;2022-11-20T00:23:04;-2.30;99.90
71754;DHT22;59593;51.716;7.016;2022-11-20T00:25:33;-2.30;99.90
71754;DHT22;59593;51.716;7.016;2022-11-20T00:27:59;-2.50;99.90
71754;DHT22;59593;51.716;7.016;2022-11-20T00:30:25;-2.80;99.90
71754;DHT22;59593;51.716;7.016;2022-11-20T00:32:50;-2.80;99.90
71754;DHT22;59593;51.716;7.016;2022-11-20T00:35:16;-2.80;99.90
71754;DHT22;59593;51.716;7.016;2022-11-20T00:37:41;-2.70;99.90
71754;DHT22;59593;51.716;7.016;2022-11-20T00:40:07;-2.80;99.90
71754;DHT22;59593;51.716;7.016;2022-11-20T00:42:33;-2.70;99.90
71754;DHT22;59593;51.716;7.016;2022-11-20T00:44:59;-2.60;99.90
71754;DHT22;59593;51.716;7.016;2022-11-20T00:47:24;-2.70;99.90
71754;DHT22;59593;51.716;7.016;2022-11-20T00:49:50;-2.70;99.90
71754;DHT22;59593;51.716;7.016;2022-11-20T00:52:15;-2.70;99.90
71754;DHT22;59593;51.716;7.016;2022-11-20T00:54:41;-2.70;99.90
71754;DHT22;59593;51.716;7.016;2022-11-20T00:57:06;-2.70;99.90
71754;DHT22;59593;51.716;7.016;2022-11-20T00:59:32;-2.60;99.90
71754;DHT22;59593;51.716;7.016;2022-11-20T01:01:58;-2.60;99.90
71754;DHT22;59593;51.716;7.016;2022-11-20T01:04:23;-2.70;99.90
71754;DHT22;59593;51.716;7.016;2022-11-20T01:06:49;-2.70;99.90
71754;DHT22;59593;51.716;7.016;2022-11-20T01:09:14;-2.60;99.90
71754;DHT22;59593;51.716;7.016;2022-11-20T01:11:43;-2.60;99.90
71754;DHT22;59593;51.716;7.016;2022-11-20T01:14:14;-2.70;99.90
71754;DHT22;59593;51.716;7.016;2022-11-20T01:16:43;-2.60;99.90
71754;DHT22;59593;51.716;7.016;2022-11-20T01:19:12;-2.60;99.90
71754;DHT22;59593;51.716;7.016;2022-11-20T01:21:41;-2.70;99.90
71754;DHT22;59593;51.716;7.016;2022-11-20T01:24:11;-2.60;99.90
71754;DHT22;59593;51.716;7.016;2022-11-20T01:26:39;-2.70;99.90
71754;DHT22;59593;51.716;7.016;2022-11-20T01:29:05;-2.70;99.90
71754;DHT22;59593;51.716;7.016;2022-11-20T01:31:31;-2.70;99.90
71754;DHT22;59593;51.716;7.016;2022-11-20T01:34:02;-2.70;99.90
71754;DHT22;59593;51.716;7.016;2022-11-20T01:36:29;-2.60;99.90
71754;DHT22;59593;51.716;7.016;2022-11-20T01:38:57;-2.60;99.90
71754;DHT22;59593;51.716;7.016;2022-11-20T01:41:24;-2.80;99.90
71754;DHT22;59593;51.716;7.016;2022-11-20T01:44:10;-2.90;99.90
71754;DHT22;59593;51.716;7.016;2022-11-20T01:46:38;-2.80;99.90
71754;DHT22;59593;51.716;7.016;2022-11-20T01:49:20;-2.60;99.90
71754;DHT22;59593;51.716;7.016;2022-11-20T01:52:00;-2.70;99.90
71754;DHT22;59593;51.716;7.016;2022-11-20T01:54:48;-2.80;99.90
71754;DHT22;59593;51.716;7.016;2022-11-20T01:57:17;-2.90;99.90
71754;DHT22;59593;51.716;7.016;2022-11-20T01:59:49;-3.00;99.90
71754;DHT22;59593;51.716;7.016;2022-11-20T02:02:17;-3.00;99.90
71754;DHT22;59593;51.716;7.016;2022-11-20T02:04:42;-2.90;99.90
71754;DHT22;59593;51.716;7.016;2022-11-20T02:07:09;-2.80;99.90
71754;DHT22;59593;51.716;7.016;2022-11-20T02:09:35;-2.70;99.90
71754;DHT22;59593;51.716;7.016;2022-11-20T02:12:00;-2.70;99.90
71754;DHT22;59593;51.716;7.016;2022-11-20T02:14:26;-2.70;99.90
71754;DHT22;59593;51.716;7.016;2022-11-20T02:16:53;-2.80;99.90
71754;DHT22;59593;51.716;7.016;2022-11-20T02:19:30;-2.70;99.90
71754;DHT22;59593;51.716;7.016;2022-11-20T02:24:25;-2.80;99.90
71754;DHT22;59593;51.716;7.016;2022-11-20T02:26:54;-2.70;99.90
71754;DHT22;59593;51.716;7.016;2022-11-20T02:29:32;-2.60;99.90
71754;DHT22;59593;51.716;7.016;2022-11-20T02:32:00;-2.70;99.90
71754;DHT22;59593;51.716;7.016;2022-11-20T02:34:27;-2.90;99.90
71754;DHT22;59593;51.716;7.016;2022-11-20T02:36:54;-3.00;99.90
71754;DHT22;59593;51.716;7.016;2022-11-20T02:39:20;-3.00;99.90
71754;DHT22;59593;51.716;7.016;2022-11-20T02:41:48;-3.10;99.90
71754;DHT22;59593;51.716;7.016;2022-11-20T02:44:13;-3.20;99.90
71754;DHT22;59593;51.716;7.016;2022-11-20T02:46:39;-3.30;99.90
71754;DHT22;59593;51.716;7.016;2022-11-20T02:49:05;-3.30;99.90
71754;DHT22;59593;51.716;7.016;2022-11-20T02:51:31;-3.30;99.90
71754;DHT22;59593;51.716;7.016;2022-11-20T02:53:57;-3.20;99.90
71754;DHT22;59593;51.716;7.016;2022-11-20T02:56:23;-3.00;99.90
71754;DHT22;59593;51.716;7.016;2022-11-20T02:58:49;-3.00;99.90
71754;DHT22;59593;51.716;7.016;2022-11-20T03:01:15;-3.00;99.90
71754;DHT22;59593;51.716;7.016;2022-11-20T03:03:40;-3.10;99.90
71754;DHT22;59593;51.716;7.016;2022-11-20T03:06:06;-3.10;99.90
71754;DHT22;59593;51.716;7.016;2022-11-20T03:08:35;-2.90;99.90
71754;DHT22;59593;51.716;7.016;2022-11-20T03:11:05;-3.00;99.90
71754;DHT22;59593;51.716;7.016;2022-11-20T03:13:31;-3.10;99.90
71754;DHT22;59593;51.716;7.016;2022-11-20T03:15:57;-2.90;99.90
71754;DHT22;59593;51.716;7.016;2022-11-20T03:18:23;-2.80;99.90
71754;DHT22;59593;51.716;7.016;2022-11-20T03:20:48;-2.90;99.90
71754;DHT22;59593;51.716;7.016;2022-11-20T03:23:14;-2.80;99.90
71754;DHT22;59593;51.716;7.016;2022-11-20T03:25:39;-2.90;99.90
71754;DHT22;59593;51.716;7.016;2022-11-20T03:28:05;-2.90;99.90
71754;DHT22;59593;51.716;7.016;2022-11-20T03:30:30;-3.00;99.90
71754;DHT22;59593;51.716;7.016;2022-11-20T03:32:56;-2.90;99.90
71754;DHT22;59593;51.716;7.016;2022-11-20T03:35:22;-3.20;99.90
71754;DHT22;59593;51.716;7.016;2022-11-20T03:37:47;-3.30;99.90
71754;DHT22;59593;51.716;7.016;2022-11-20T03:40:13;-3.20;99.90
71754;DHT22;59593;51.716;7.016;2022-11-20T03:42:39;-3.10;99.90
71754;DHT22;59593;51.716;7.016;2022-11-20T03:45:10;-3.00;99.90
71754;DHT22;59593;51.716;7.016;2022-11-20T03:47:36;-2.90;99.90
71754;DHT22;59593;51.716;7.016;2022-11-20T03:50:03;-2.90;99.90
71754;DHT22;59593;51.716;7.016;2022-11-20T03:52:28;-2.90;99.90
71754;DHT22;59593;51.716;7.016;2022-11-20T03:54:54;-2.90;99.90
71754;DHT22;59593;51.716;7.016;2022-11-20T03:57:20;-3.00;99.90
71754;DHT22;59593;51.716;7.016;2022-11-20T03:59:45;-3.30;99.90
71754;DHT22;59593;51.716;7.016;2022-11-20T04:02:11;-3.50;99.90
71754;DHT22;59593;51.716;7.016;2022-11-20T04:04:37;-3.50;99.90
71754;DHT22;59593;51.716;7.016;2022-11-20T04:07:02;-3.40;99.90
71754;DHT22;59593;51.716;7.016;2022-11-20T04:09:28;-3.20;99.90
71754;DHT22;59593;51.716;7.016;2022-11-20T04:11:53;-3.20;99.90
71754;DHT22;59593;51.716;7.016;2022-11-20T04:14:19;-3.30;99.90
71754;DHT22;59593;51.716;7.016;2022-11-20T04:16:45;-3.50;99.90
71754;DHT22;59593;51.716;7.016;2022-11-20T04:19:13;-3.50;99.90
71754;DHT22;59593;51.716;7.016;2022-11-20T04:21:42;-3.40;99.90
71754;DHT22;59593;51.716;7.016;2022-11-20T04:24:07;-3.30;99.90
71754;DHT22;59593;51.716;7.016;2022-11-20T04:26:34;-3.20;99.90
71754;DHT22;59593;51.716;7.016;2022-11-20T04:29:00;-3.40;99.90
71754;DHT22;59593;51.716;7.016;2022-11-20T04:31:32;-3.50;99.90
71754;DHT22;59593;51.716;7.016;2022-11-20T04:34:04;-3.40;99.90
71754;DHT22;59593;51.716;7.016;2022-11-20T04:36:30;-3.30;99.90
71754;DHT22;59593;51.716;7.016;2022-11-20T04:39:02;-3.40;99.90
71754;DHT22;59593;51.716;7.016;2022-11-20T04:41:30;-3.40;99.90
71754;DHT22;59593;51.716;7.016;2022-11-20T04:43:59;-3.40;99.90
71754;DHT22;59593;51.716;7.016;2022-11-20T04:46:29;-3.40;99.90
71754;DHT22;59593;51.716;7.016;2022-11-20T04:48:55;-3.30;99.90
71754;DHT22;59593;51.716;7.016;2022-11-20T04:51:20;-3.30;99.90
71754;DHT22;59593;51.716;7.016;2022-11-20T04:53:46;-3.40;99.90
71754;DHT22;59593;51.716;7.016;2022-11-20T04:56:12;-3.60;99.90
71754;DHT22;59593;51.716;7.016;2022-11-20T04:58:39;-3.60;99.90
71754;DHT22;59593;51.716;7.016;2022-11-20T05:01:19;-3.50;99.90
71754;DHT22;59593;51.716;7.016;2022-11-20T05:03:45;-3.50;99.90
71754;DHT22;59593;51.716;7.016;2022-11-20T05:06:13;-3.50;99.90
71754;DHT22;59593;51.716;7.016;2022-11-20T05:08:39;-3.50;99.90
71754;DHT22;59593;51.716;7.016;2022-11-20T05:11:11;-3.30;99.90
71754;DHT22;59593;51.716;7.016;2022-11-20T05:13:37;-3.40;99.90
71754;DHT22;59593;51.716;7.016;2022-11-20T05:16:13;-3.50;99.90
71754;DHT22;59593;51.716;7.016;2022-11-20T05:18:39;-3.40;99.90
71754;DHT22;59593;51.716;7.016;2022-11-20T05:21:06;-3.50;99.90
71754;DHT22;59593;51.716;7.016;2022-11-20T05:23:32;-3.50;99.90
71754;DHT22;59593;51.716;7.016;2022-11-20T05:25:59;-3.40;99.90
71754;DHT22;59593;51.716;7.016;2022-11-20T05:28:26;-3.40;99.90
71754;DHT22;59593;51.716;7.016;2022-11-20T05:30:52;-3.40;99.90
71754;DHT22;59593;51.716;7.016;2022-11-20T05:33:18;-3.40;99.90
71754;DHT22;59593;51.716;7.016;2022-11-20T05:35:44;-3.40;99.90
71754;DHT22;59593;51.716;7.016;2022-11-20T05:38:09;-3.70;99.90
71754;DHT22;59593;51.716;7.016;2022-11-20T05:40:35;-3.70;99.90
71754;DHT22;59593;51.716;7.016;2022-11-20T05:43:01;-3.60;99.90
71754;DHT22;59593;51.716;7.016;2022-11-20T05:45:26;-3.60;99.90
71754;DHT22;59593;51.716;7.016;2022-11-20T05:47:52;-3.60;99.90
71754;DHT22;59593;51.716;7.016;2022-11-20T05:50:18;-3.50;99.90
71754;DHT22;59593;51.716;7.016;2022-11-20T05:52:43;-3.60;99.90
71754;DHT22;59593;51.716;7.016;2022-11-20T05:55:09;-3.40;99.90
71754;DHT22;59593;51.716;7.016;2022-11-20T05:57:35;-3.40;99.90
71754;DHT22;59593;51.716;7.016;2022-11-20T06:00:02;-3.30;99.90
71754;DHT22;59593;51.716;7.016;2022-11-20T06:02:29;-3.30;99.90
71754;DHT22;59593;51.716;7.016;2022-11-20T06:04:54;-3.40;99.90
71754;DHT22;59593;51.716;7.016;2022-11-20T06:07:20;-3.40;99.90
71754;DHT22;59593;51.716;7.016;2022-11-20T06:09:45;-3.20;99.90
71754;DHT22;59593;51.716;7.016;2022-11-20T06:12:11;-3.30;99.90
71754;DHT22;59593;51.716;7.016;2022-11-20T06:14:37;-3.40;99.90
71754;DHT22;59593;51.716;7.016;2022-11-20T06:17:02;-3.40;99.90
71754;DHT22;59593;51.716;7.016;2022-11-20T06:19:28;-3.40;99.90
71754;DHT22;59593;51.716;7.016;2022-11-20T06:21:54;-3.40;99.90
71754;DHT22;59593;51.716;7.016;2022-11-20T06:24:19;-3.40;99.90
71754;DHT22;59593;51.716;7.016;2022-11-20T06:26:45;-3.50;99.90
71754;DHT22;59593;51.716;7.016;2022-11-20T06:29:11;-3.50;99.90
71754;DHT22;59593;51.716;7.016;2022-11-20T06:31:37;-3.40;99.90
71754;DHT22;59593;51.716;7.016;2022-11-20T06:34:04;-3.50;99.90
71754;DHT22;59593;51.716;7.016;2022-11-20T06:36:31;-3.60;99.90
71754;DHT22;59593;51.716;7.016;2022-11-20T06:38:56;-3.60;99.90
71754;DHT22;59593;51.716;7.016;2022-11-20T06:41:23;-3.60;99.90
71754;DHT22;59593;51.716;7.016;2022-11-20T06:43:49;-3.60;99.90
71754;DHT22;59593;51.716;7.016;2022-11-20T06:46:16;-3.60;99.90
71754;DHT22;59593;51.716;7.016;2022-11-20T06:48:43;-3.70;99.90
71754;DHT22;59593;51.716;7.016;2022-11-20T06:51:09;-3.70;99.90
71754;DHT22;59593;51.716;7.016;2022-11-20T06:53:35;-3.60;99.90
71754;DHT22;59593;51.716;7.016;2022-11-20T06:56:00;-3.50;99.90
71754;DHT22;59593;51.716;7.016;2022-11-20T06:58:27;-3.80;99.90
71754;DHT22;59593;51.716;7.016;2022-11-20T07:00:53;-3.90;99.90
71754;DHT22;59593;51.716;7.016;2022-11-20T07:03:19;-3.80;99.90
71754;DHT22;59593;51.716;7.016;2022-11-20T07:05:45;-3.90;99.90
71754;DHT22;59593;51.716;7.016;2022-11-20T07:08:11;-3.70;99.90
71754;DHT22;59593;51.716;7.016;2022-11-20T07:10:38;-3.60;99.90
71754;DHT22;59593;51.716;7.016;2022-11-20T07:13:03;-3.80;99.90
71754;DHT22;59593;51.716;7.016;2022-11-20T07:15:29;-3.70;99.90
71754;DHT22;59593;51.716;7.016;2022-11-20T07:17:58;-3.60;99.90
71754;DHT22;59593;51.716;7.016;2022-11-20T07:20:23;-3.60;99.90
71754;DHT22;59593;51.716;7.016;2022-11-20T07:22:56;-3.50;99.90
71754;DHT22;59593;51.716;7.016;2022-11-20T07:25:23;-3.40;99.90
71754;DHT22;59593;51.716;7.016;2022-11-20T07:27:49;-3.30;99.90
71754;DHT22;59593;51.716;7.016;2022-11-20T07:30:16;-3.30;99.90
71754;DHT22;59593;51.716;7.016;2022-11-20T07:32:41;-3.30;99.90
71754;DHT22;59593;51.716;7.016;2022-11-20T07:35:07;-3.30;99.90
71754;DHT22;59593;51.716;7.016;2022-11-20T07:37:36;-3.20;99.90
71754;DHT22;59593;51.716;7.016;2022-11-20T07:40:02;-3.40;99.90
71754;DHT22;59593;51.716;7.016;2022-11-20T07:42:28;-3.20;99.90
71754;DHT22;59593;51.716;7.016;2022-11-20T07:44:54;-3.10;99.90
71754;DHT22;59593;51.716;7.016;2022-11-20T07:47:19;-3.10;99.90
71754;DHT22;59593;51.716;7.016;2022-11-20T07:49:45;-3.10;99.90
71754;DHT22;59593;51.716;7.016;2022-11-20T07:52:10;-3.10;99.90
71754;DHT22;59593;51.716;7.016;2022-11-20T07:54:36;-3.10;99.90
71754;DHT22;59593;51.716;7.016;2022-11-20T07:57:01;-3.10;99.90
71754;DHT22;59593;51.716;7.016;2022-11-20T07:59:27;-3.00;99.90
71754;DHT22;59593;51.716;7.016;2022-11-20T08:01:52;-3.00;99.90
71754;DHT22;59593;51.716;7.016;2022-11-20T08:04:18;-2.90;99.90
71754;DHT22;59593;51.716;7.016;2022-11-20T08:06:44;-2.70;99.90
71754;DHT22;59593;51.716;7.016;2022-11-20T08:09:09;-2.60;99.90
71754;DHT22;59593;51.716;7.016;2022-11-20T08:11:35;-2.60;99.90
71754;DHT22;59593;51.716;7.016;2022-11-20T08:14:19;-2.60;99.90
71754;DHT22;59593;51.716;7.016;2022-11-20T08:16:46;-2.60;99.90
71754;DHT22;59593;51.716;7.016;2022-11-20T08:19:14;-2.60;99.90
71754;DHT22;59593;51.716;7.016;2022-11-20T08:21:40;-2.50;99.90
71754;DHT22;59593;51.716;7.016;2022-11-20T08:24:07;-2.50;99.90
71754;DHT22;59593;51.716;7.016;2022-11-20T08:26:33;-2.50;99.90
71754;DHT22;59593;51.716;7.016;2022-11-20T08:28:59;-2.40;99.90
71754;DHT22;59593;51.716;7.016;2022-11-20T08:31:25;-2.30;99.90
71754;DHT22;59593;51.716;7.016;2022-11-20T08:33:52;-2.30;99.90
71754;DHT22;59593;51.716;7.016;2022-11-20T08:36:18;-2.30;99.90
71754;DHT22;59593;51.716;7.016;2022-11-20T08:38:54;-2.20;99.90
71754;DHT22;59593;51.716;7.016;2022-11-20T08:41:21;-2.10;99.90
71754;DHT22;59593;51.716;7.016;2022-11-20T08:43:52;-1.90;99.90
71754;DHT22;59593;51.716;7.016;2022-11-20T08:46:19;-1.80;99.90
71754;DHT22;59593;51.716;7.016;2022-11-20T08:48:45;-1.80;99.90
71754;DHT22;59593;51.716;7.016;2022-11-20T08:51:11;-1.70;99.90
71754;DHT22;59593;51.716;7.016;2022-11-20T08:53:37;-1.70;99.90
71754;DHT22;59593;51.716;7.016;2022-11-20T08:56:03;-1.60;99.90
71754;DHT22;59593;51.716;7.016;2022-11-20T08:58:29;-1.60;99.90
71754;DHT22;59593;51.716;7.016;2022-11-20T09:00:55;-1.40;99.90
71754;DHT22;59593;51.716;7.016;2022-11-20T09:03:20;-1.30;99.90
71754;DHT22;59593;51.716;7.016;2022-11-20T09:05:46;-1.20;99.90
71754;DHT22;59593;51.716;7.016;2022-11-20T09:08:12;-1.10;99.90
71754;DHT22;59593;51.716;7.016;2022-11-20T09:10:37;-1.10;99.90
71754;DHT22;59593;51.716;7.016;2022-11-20T09:13:05;-0.90;99.90
71754;DHT22;59593;51.716;7.016;2022-11-20T09:15:31;-0.70;99.90
71754;DHT22;59593;51.716;7.016;2022-11-20T09:17:59;-0.70;99.90
71754;DHT22;59593;51.716;7.016;2022-11-20T09:20:25;-0.60;99.90
71754;DHT22;59593;51.716;7.016;2022-11-20T09:22:51;-0.60;99.90
71754;DHT22;59593;51.716;7.016;2022-11-20T09:25:17;-0.50;99.90
71754;DHT22;59593;51.716;7.016;2022-11-20T09:27:43;-0.40;99.90
71754;DHT22;59593;51.716;7.016;2022-11-20T09:30:12;-0.30;99.90
71754;DHT22;59593;51.716;7.016;2022-11-20T09:32:41;-0.20;99.90
71754;DHT22;59593;51.716;7.016;2022-11-20T09:35:08;-0.10;99.90
71754;DHT22;59593;51.716;7.016;2022-11-20T09:37:34;-0.10;99.90
71754;DHT22;59593;51.716;7.016;2022-11-20T09:40:00;-0.10;99.90
71754;DHT22;59593;51.716;7.016;2022-11-20T09:42:39;0.00;99.90
71754;DHT22;59593;51.716;7.016;2022-11-20T09:45:23;0.10;99.90
71754;DHT22;59593;51.716;7.016;2022-11-20T09:50:51;0.40;99.90
71754;DHT22;59593;51.716;7.016;2022-11-20T09:53:34;0.50;99.90
71754;DHT22;59593;51.716;7.016;2022-11-20T09:56:02;0.80;99.90
71754;DHT22;59593;51.716;7.016;2022-11-20T09:58:38;1.00;99.90
71754;DHT22;59593;51.716;7.016;2022-11-20T10:01:26;1.20;99.90
71754;DHT22;59593;51.716;7.016;2022-11-20T10:06:47;1.30;99.90
71754;DHT22;59593;51.716;7.016;2022-11-20T10:09:21;1.40;99.90
71754;DHT22;59593;51.716;7.016;2022-11-20T10:12:14;1.90;99.90
71754;DHT22;59593;51.716;7.016;2022-11-20T10:15:04;2.20;99.90
71754;DHT22;59593;51.716;7.016;2022-11-20T10:18:09;2.50;99.90
71754;DHT22;59593;51.716;7.016;2022-11-20T10:20:44;3.10;99.90
71754;DHT22;59593;51.716;7.016;2022-11-20T10:26:31;3.70;99.90
71754;DHT22;59593;51.716;7.016;2022-11-20T10:29:29;3.90;99.90
71754;DHT22;59593;51.716;7.016;2022-11-20T10:32:02;4.00;99.90
71754;DHT22;59593;51.716;7.016;2022-11-20T10:34:51;4.50;99.90
71754;DHT22;59593;51.716;7.016;2022-11-20T10:37:23;4.70;99.90
71754;DHT22;59593;51.716;7.016;2022-11-20T10:40:06;4.90;99.90
71754;DHT22;59593;51.716;7.016;2022-11-20T10:50:41;4.60;99.90
71754;DHT22;59593;51.716;7.016;2022-11-20T10:55:58;3.60;99.90
71754;DHT22;59593;51.716;7.016;2022-11-20T11:01:21;3.30;99.90
71754;DHT22;59593;51.716;7.016;2022-11-20T11:03:51;3.10;99.90
71754;DHT22;59593;51.716;7.016;2022-11-20T11:06:35;3.00;99.90
71754;DHT22;59593;51.716;7.016;2022-11-20T11:09:13;2.80;99.90
71754;DHT22;59593;51.716;7.016;2022-11-20T11:11:40;2.90;99.90
71754;DHT22;59593;51.716;7.016;2022-11-20T11:16:32;2.70;99.90
71754;DHT22;59593;51.716;7.016;2022-11-20T11:19:12;2.80;99.90
71754;DHT22;59593;51.716;7.016;2022-11-20T11:21:37;2.90;99.90
71754;DHT22;59593;51.716;7.016;2022-11-20T11:24:20;3.10;99.90
71754;DHT22;59593;51.716;7.016;2022-11-20T11:26:56;3.10;99.90
71754;DHT22;59593;51.716;7.016;2022-11-20T11:29:22;3.10;99.90
71754;DHT22;59593;51.716;7.016;2022-11-20T11:31:49;3.00;99.90
71754;DHT22;59593;51.716;7.016;2022-11-20T11:34:16;3.00;99.90
71754;DHT22;59593;51.716;7.016;2022-11-20T11:36:49;3.20;99.90
71754;DHT22;59593;51.716;7.016;2022-11-20T11:39:19;3.40;99.90
71754;DHT22;59593;51.716;7.016;2022-11-20T11:41:46;3.40;99.90
71754;DHT22;59593;51.716;7.016;2022-11-20T11:44:23;3.40;99.90
71754;DHT22;59593;51.716;7.016;2022-11-20T11:47:23;3.40;99.90
71754;DHT22;59593;51.716;7.016;2022-11-20T11:50:00;3.40;99.90
71754;DHT22;59593;51.716;7.016;2022-11-20T11:52:26;3.40;99.90
71754;DHT22;59593;51.716;7.016;2022-11-20T11:55:01;3.70;99.90
71754;DHT22;59593;51.716;7.016;2022-11-20T12:00:20;4.60;99.90
71754;DHT22;59593;51.716;7.016;2022-11-20T12:05:40;6.90;99.90
71754;DHT22;59593;51.716;7.016;2022-11-20T12:08:36;7.70;99.90
71754;DHT22;59593;51.716;7.016;2022-11-20T12:14:16;6.30;99.90
71754;DHT22;59593;51.716;7.016;2022-11-20T12:16:45;5.50;99.90
71754;DHT22;59593;51.716;7.016;2022-11-20T12:19:12;5.30;99.90
71754;DHT22;59593;51.716;7.016;2022-11-20T12:21:56;5.20;99.90
71754;DHT22;59593;51.716;7.016;2022-11-20T12:30:10;4.40;99.90
71754;DHT22;59593;51.716;7.016;2022-11-20T12:32:52;4.30;99.90
71754;DHT22;59593;51.716;7.016;2022-11-20T12:52:51;3.50;99.90
71754;DHT22;59593;51.716;7.016;2022-11-20T13:00:33;3.40;99.90
71754;DHT22;59593;51.716;7.016;2022-11-20T13:03:24;3.40;99.90
71754;DHT22;59593;51.716;7.016;2022-11-20T13:05:59;3.40;99.90
71754;DHT22;59593;51.716;7.016;2022-11-20T13:08:34;3.40;99.90
71754;DHT22;59593;51.716;7.016;2022-11-20T13:13:52;3.40;99.90
71754;DHT22;59593;51.716;7.016;2022-11-20T13:16:38;3.50;99.90
71754;DHT22;59593;51.716;7.016;2022-11-20T13:19:13;3.50;99.90
71754;DHT22;59593;51.716;7.016;2022-11-20T13:21:41;3.70;99.90
71754;DHT22;59593;51.716;7.016;2022-11-20T13:24:29;3.70;99.90
71754;DHT22;59593;51.716;7.016;2022-11-20T13:27:16;3.80;99.90
71754;DHT22;59593;51.716;7.016;2022-11-20T13:29:45;3.70;99.90
71754;DHT22;59593;51.716;7.016;2022-11-20T13:32:14;3.80;99.90
71754;DHT22;59593;51.716;7.016;2022-11-20T13:34:55;3.80;99.90
71754;DHT22;59593;51.716;7.016;2022-11-20T13:37:38;3.70;99.90
71754;DHT22;59593;51.716;7.016;2022-11-20T13:42:37;3.60;99.90
71754;DHT22;59593;51.716;7.016;2022-11-20T13:45:11;3.70;99.90
71754;DHT22;59593;51.716;7.016;2022-11-20T13:47:49;3.80;99.90
71754;DHT22;59593;51.716;7.016;2022-11-20T13:50:16;3.70;99.90
71754;DHT22;59593;51.716;7.016;2022-11-20T14:01:19;3.60;99.90
71754;DHT22;59593;51.716;7.016;2022-11-20T14:03:46;3.60;99.90
71754;DHT22;59593;51.716;7.016;2022-11-20T14:06:22;3.50;99.90
71754;DHT22;59593;51.716;7.016;2022-11-20T14:08:51;3.50;99.90
71754;DHT22;59593;51.716;7.016;2022-11-20T14:14:02;3.60;99.90
71754;DHT22;59593;51.716;7.016;2022-11-20T14:16:31;3.60;99.90
71754;DHT22;59593;51.716;7.016;2022-11-20T14:21:47;3.50;99.90
71754;DHT22;59593;51.716;7.016;2022-11-20T14:24:13;3.40;99.90
71754;DHT22;59593;51.716;7.016;2022-11-20T14:26:43;3.50;99.90
71754;DHT22;59593;51.716;7.016;2022-11-20T14:29:17;3.50;99.90
71754;DHT22;59593;51.716;7.016;2022-11-20T14:31:45;3.50;99.90
71754;DHT22;59593;51.716;7.016;2022-11-20T14:34:21;3.50;99.90
71754;DHT22;59593;51.716;7.016;2022-11-20T14:36:48;3.40;99.90
71754;DHT22;59593;51.716;7.016;2022-11-20T14:39:20;3.40;99.90
71754;DHT22;59593;51.716;7.016;2022-11-20T14:41:53;3.40;99.90
71754;DHT22;59593;51.716;7.016;2022-11-20T14:44:27;3.30;99.90
71754;DHT22;59593;51.716;7.016;2022-11-20T14:46:55;3.40;99.90
71754;DHT22;59593;51.716;7.016;2022-11-20T14:49:21;3.30;99.90
71754;DHT22;59593;51.716;7.016;2022-11-20T14:51:46;3.30;99.90
71754;DHT22;59593;51.716;7.016;2022-11-20T14:54:23;3.30;99.90
71754;DHT22;59593;51.716;7.016;2022-11-20T14:57:00;3.30;99.90
71754;DHT22;59593;51.716;7.016;2022-11-20T14:59:32;3.40;99.90
71754;DHT22;59593;51.716;7.016;2022-11-20T15:02:06;3.40;99.90
71754;DHT22;59593;51.716;7.016;2022-11-20T15:04:45;3.40;99.90
71754;DHT22;59593;51.716;7.016;2022-11-20T15:07:10;3.30;99.90
71754;DHT22;59593;51.716;7.016;2022-11-20T15:09:36;3.20;99.90
71754;DHT22;59593;51.716;7.016;2022-11-20T15:12:03;3.10;99.90
71754;DHT22;59593;51.716;7.016;2022-11-20T15:14:30;3.10;99.90
71754;DHT22;59593;51.716;7.016;2022-11-20T15:16:58;3.10;99.90
71754;DHT22;59593;51.716;7.016;2022-11-20T15:19:25;3.10;99.90
71754;DHT22;59593;51.716;7.016;2022-11-20T15:21:52;3.10;99.90
71754;DHT22;59593;51.716;7.016;2022-11-20T15:24:17;3.10;99.90
71754;DHT22;59593;51.716;7.016;2022-11-20T15:26:44;3.00;99.90
71754;DHT22;59593;51.716;7.016;2022-11-20T15:29:14;3.00;99.90
71754;DHT22;59593;51.716;7.016;2022-11-20T15:31:44;3.00;99.90
71754;DHT22;59593;51.716;7.016;2022-11-20T15:34:16;3.00;99.90
71754;DHT22;59593;51.716;7.016;2022-11-20T15:36:42;3.00;99.90
71754;DHT22;59593;51.716;7.016;2022-11-20T15:39:09;3.00;99.90
71754;DHT22;59593;51.716;7.016;2022-11-20T15:41:38;3.00;99.90
71754;DHT22;59593;51.716;7.016;2022-11-20T15:44:04;3.00;99.90
71754;DHT22;59593;51.716;7.016;2022-11-20T15:46:36;2.90;99.90
71754;DHT22;59593;51.716;7.016;2022-11-20T15:49:04;2.80;99.90
71754;DHT22;59593;51.716;7.016;2022-11-20T15:51:32;2.80;99.90
71754;DHT22;59593;51.716;7.016;2022-11-20T15:53:59;2.80;99.90
71754;DHT22;59593;51.716;7.016;2022-11-20T15:56:25;2.80;99.90
71754;DHT22;59593;51.716;7.016;2022-11-20T15:58:51;2.80;99.90
71754;DHT22;59593;51.716;7.016;2022-11-20T16:01:21;2.80;99.90
71754;DHT22;59593;51.716;7.016;2022-11-20T16:03:47;2.80;99.90
71754;DHT22;59593;51.716;7.016;2022-11-20T16:06:13;2.80;99.90
71754;DHT22;59593;51.716;7.016;2022-11-20T16:08:38;2.80;99.90
71754;DHT22;59593;51.716;7.016;2022-11-20T16:11:04;2.80;99.90
71754;DHT22;59593;51.716;7.016;2022-11-20T16:13:31;2.80;99.90
71754;DHT22;59593;51.716;7.016;2022-11-20T16:16:25;2.80;99.90
71754;DHT22;59593;51.716;7.016;2022-11-20T16:18:54;2.80;99.90
71754;DHT22;59593;51.716;7.016;2022-11-20T16:21:20;2.80;99.90
71754;DHT22;59593;51.716;7.016;2022-11-20T16:23:45;2.80;99.90
71754;DHT22;59593;51.716;7.016;2022-11-20T16:26:12;2.80;99.90
71754;DHT22;59593;51.716;7.016;2022-11-20T16:28:38;2.80;99.90
71754;DHT22;59593;51.716;7.016;2022-11-20T16:31:14;2.80;99.90
71754;DHT22;59593;51.716;7.016;2022-11-20T16:33:40;2.80;99.90
71754;DHT22;59593;51.716;7.016;2022-11-20T16:36:11;2.80;99.90
71754;DHT22;59593;51.716;7.016;2022-11-20T16:38:37;2.70;99.90
71754;DHT22;59593;51.716;7.016;2022-11-20T16:41:03;2.70;99.90
71754;DHT22;59593;51.716;7.016;2022-11-20T16:43:29;2.70;99.90
71754;DHT22;59593;51.716;7.016;2022-11-20T16:45:54;2.70;99.90
71754;DHT22;59593;51.716;7.016;2022-11-20T16:48:20;2.70;99.90
71754;DHT22;59593;51.716;7.016;2022-11-20T16:50:47;2.80;99.90
71754;DHT22;59593;51.716;7.016;2022-11-20T16:53:14;2.70;99.90
71754;DHT22;59593;51.716;7.016;2022-11-20T16:55:39;2.70;99.90
71754;DHT22;59593;51.716;7.016;2022-11-20T16:58:05;2.70;99.90
71754;DHT22;59593;51.716;7.016;2022-11-20T17:00:31;2.70;99.90
71754;DHT22;59593;51.716;7.016;2022-11-20T17:02:56;2.70;99.90
71754;DHT22;59593;51.716;7.016;2022-11-20T17:05:22;2.70;99.90
71754;DHT22;59593;51.716;7.016;2022-11-20T17:07:47;2.70;99.90
71754;DHT22;59593;51.716;7.016;2022-11-20T17:10:13;2.70;99.90
71754;DHT22;59593;51.716;7.016;2022-11-20T17:12:38;2.60;99.90